MDLR/LRM METAR and TAF weather

Enter ICAO airport designator
Station Type Date Time Source
MDLR METAR 2022/06/27 03:00 UTC NOAA

MDLR 270300Z 00000KT 9999 SCT016 24/24 Q1017


Station Type Date Time Source
MDLR Decoded METAR 2022/06/27 03:00 UTC NOAA

La Romana International Airport, Dominican Republic (MDLR) 18-25N 068-57W
Jun 26, 2022 - 11:00 PM EDT / 2022.06.27 0300 UTC
Wind: Calm:0
Visibility: greater than 7 mile(s):0
Sky conditions: partly cloudy
Temperature: 75 F (24 C)
Dew Point: 75 F (24 C)
Relative Humidity: 100%
Pressure (altimeter): 30.03 in. Hg (1017 hPa)
ob: MDLR 270300Z 00000KT 9999 SCT016 24/24 Q1017
cycle: 3

Station Type Date Time Source
MDLR TAF 2022/06/27 06:18 UTC NOAA

TAF MDLR 270400Z 2706/2806 00000KT 9999 SCT016
BECMG 2711/2713 09010KT

Example: see airport list